createdAt,value
2019-05-17T06:53:36.509Z,999.58
2019-05-17T06:54:36.470Z,999.59
2019-05-17T06:55:36.449Z,999.63
2019-05-17T06:56:36.427Z,999.61
2019-05-17T06:57:36.405Z,999.58
2019-05-17T06:58:36.399Z,999.59
2019-05-17T06:59:36.368Z,999.62
2019-05-17T07:00:36.343Z,999.65
2019-05-17T07:01:36.322Z,999.62
2019-05-17T07:02:36.303Z,999.61
2019-05-17T07:03:36.298Z,999.59
2019-05-17T07:04:36.259Z,999.61
2019-05-17T07:05:36.239Z,999.60
2019-05-17T07:06:36.224Z,999.61
2019-05-17T07:07:36.199Z,999.57
2019-05-17T07:08:36.182Z,999.64
2019-05-17T07:09:36.174Z,999.62
2019-05-17T07:10:36.146Z,999.59
2019-05-17T07:11:36.127Z,999.54
2019-05-17T07:12:36.101Z,999.57
2019-05-17T07:13:36.085Z,999.57
2019-05-17T07:14:36.087Z,999.57
2019-05-17T07:15:46.896Z,999.59
2019-05-17T07:16:36.023Z,999.54
2019-05-17T07:17:36.009Z,999.57
2019-05-17T07:18:35.987Z,999.56
2019-05-17T07:19:35.970Z,999.59
2019-05-17T07:20:35.968Z,999.54
2019-05-17T07:58:21.324Z,999.29
2019-05-17T07:59:20.006Z,999.29
2019-05-17T08:00:20.212Z,999.31
2019-05-17T08:01:20.511Z,999.31
2019-05-17T08:02:19.907Z,999.30
2019-05-17T08:03:20.957Z,999.29
2019-05-17T08:04:20.474Z,999.30
2019-05-17T08:05:21.464Z,999.28
2019-05-17T08:06:19.905Z,999.26
2019-05-17T08:07:19.715Z,999.29
2019-05-17T08:08:20.859Z,999.26
2019-05-17T08:09:20.453Z,999.25
2019-05-17T08:10:20.358Z,999.21
2019-05-17T08:11:19.756Z,999.23
2019-05-17T08:12:19.984Z,999.23
2019-05-17T08:13:27.421Z,999.25
2019-05-17T08:14:29.281Z,999.21
2019-05-17T08:15:19.767Z,999.20
2019-05-17T08:16:19.631Z,999.21
2019-05-17T08:17:19.857Z,999.15
2019-05-17T08:18:20.381Z,999.17
2019-05-17T08:30:51.675Z,999.08
2019-05-17T08:31:51.652Z,999.09
2019-05-17T08:32:51.619Z,999.05
2019-05-17T08:33:51.595Z,999.05
2019-05-17T08:34:51.956Z,999.03
2019-05-17T08:35:51.553Z,999.02
2019-05-17T08:36:51.557Z,999.04
2019-05-17T08:37:51.517Z,999.07
2019-05-17T08:38:51.494Z,999.02
2019-05-17T08:39:51.479Z,999.00
2019-05-17T08:40:51.464Z,999.05
2019-05-17T08:41:51.453Z,999.01
2019-05-17T08:42:51.418Z,999.04
2019-05-17T08:43:51.637Z,999.05
2019-05-17T08:44:51.379Z,999.06
2019-05-17T08:45:51.374Z,999.08
2019-05-17T08:46:51.360Z,999.13
2019-05-17T08:47:51.324Z,999.12
2019-05-17T08:48:51.310Z,999.14
2019-05-17T08:49:51.288Z,999.14
2019-05-17T08:50:51.271Z,999.09
2019-05-17T08:51:51.287Z,999.12
2019-05-17T08:52:51.231Z,999.11
2019-05-17T08:53:51.224Z,999.07
2019-05-17T08:54:51.198Z,999.10
2019-05-17T08:55:51.179Z,999.09
2019-05-17T08:56:51.158Z,999.07
2019-05-17T08:57:51.159Z,999.04
2019-05-17T08:58:51.123Z,998.98
2019-05-17T08:59:51.106Z,999.03
2019-05-17T09:00:51.087Z,998.97
2019-05-17T09:01:51.068Z,999.05
2019-05-17T09:02:51.073Z,999.04
2019-05-17T09:03:51.034Z,999.03
2019-05-17T09:04:51.015Z,999.00
2019-05-17T09:05:52.567Z,999.02
2019-05-17T09:06:50.980Z,998.99
2019-05-17T09:07:50.980Z,998.97
2019-05-17T09:08:50.953Z,998.96
2019-05-17T09:09:50.928Z,998.95
2019-05-17T09:10:50.914Z,998.95
2019-05-17T09:11:50.894Z,998.93
2019-05-17T09:12:50.890Z,998.95
2019-05-17T09:13:57.556Z,998.93
2019-05-17T09:14:50.839Z,998.93
2019-05-17T09:15:50.823Z,998.92
2019-05-17T09:16:50.810Z,998.92
2019-05-17T09:17:50.791Z,998.87
2019-05-17T09:18:50.787Z,998.85
2019-05-17T09:19:54.113Z,998.85
2019-05-17T09:20:50.735Z,998.86
2019-05-17T09:21:50.720Z,998.81
2019-05-17T09:22:51.154Z,998.83
2019-05-17T09:23:50.703Z,998.80
2019-05-17T09:24:50.675Z,998.77
2019-05-17T09:25:50.653Z,998.73
2019-05-17T09:26:50.634Z,998.79
2019-05-17T09:27:50.621Z,998.75
2019-05-17T09:28:50.613Z,998.74
2019-05-17T09:29:50.582Z,998.77
2019-05-17T09:30:50.879Z,998.73
2019-05-17T09:31:50.568Z,998.77
2019-05-17T09:32:50.533Z,998.75
2019-05-17T09:33:50.531Z,998.76
2019-05-17T09:34:50.508Z,998.76
2019-05-17T09:35:50.484Z,998.78
2019-05-17T09:36:50.466Z,998.76
2019-05-17T09:37:50.447Z,998.77
2019-05-17T09:38:50.468Z,998.75
2019-05-17T09:39:50.416Z,998.76
2019-05-17T09:40:50.661Z,998.74
2019-05-17T09:41:50.383Z,998.77
2019-05-17T09:42:50.367Z,998.75
2019-05-17T09:43:50.351Z,998.75
2019-05-17T09:44:50.343Z,998.72
2019-05-17T09:45:50.936Z,998.73
2019-05-17T09:46:50.503Z,998.73
2019-05-17T09:47:50.673Z,998.75
2019-05-17T09:48:50.671Z,998.67
2019-05-17T09:49:50.299Z,998.69
2019-05-17T09:50:50.617Z,998.68
2019-05-17T09:51:50.216Z,998.63
2019-05-17T09:52:50.201Z,998.65
2019-05-17T09:53:50.187Z,998.63
2019-05-17T09:54:50.568Z,998.71
2019-05-17T09:55:50.157Z,998.68
2019-05-17T09:56:50.139Z,998.64
2019-05-17T09:57:50.119Z,998.67
2019-05-17T09:58:50.103Z,998.69
2019-05-17T09:59:50.089Z,998.69
2019-05-17T10:00:50.086Z,998.72
2019-05-17T10:01:50.056Z,998.74
2019-05-17T10:02:50.749Z,998.71
2019-05-17T10:03:50.545Z,998.67
2019-05-17T10:04:50.391Z,998.68
2019-05-17T10:05:50.027Z,998.66
2019-05-17T10:06:51.353Z,998.58
2019-05-17T10:07:50.753Z,998.63
2019-05-17T10:08:49.948Z,998.60
2019-05-17T10:09:50.242Z,998.55
2019-05-17T10:11:04.196Z,998.57
2019-05-17T10:11:49.909Z,998.58
2019-05-17T10:12:49.984Z,998.54
2019-05-17T10:13:50.044Z,998.59
2019-05-17T10:14:49.985Z,998.58
2019-05-17T10:15:50.164Z,998.60
2019-05-17T10:16:49.831Z,998.60
2019-05-17T10:17:49.797Z,998.57
2019-05-17T10:18:49.793Z,998.56
2019-05-17T10:19:49.765Z,998.58
2019-05-17T10:20:50.617Z,998.57
2019-05-17T10:21:49.756Z,998.56
2019-05-17T10:22:50.435Z,998.57
2019-05-17T10:23:49.942Z,998.63
2019-05-17T10:24:49.685Z,998.61
2019-05-17T10:25:49.670Z,998.59
2019-05-17T10:26:49.958Z,998.58
2019-05-17T10:27:49.907Z,998.58
2019-05-17T10:28:51.664Z,998.57
2019-05-17T10:29:50.142Z,998.54
2019-05-17T10:30:52.385Z,998.51
2019-05-17T10:31:50.468Z,998.49
2019-05-17T10:32:50.611Z,998.46
2019-05-17T10:33:49.600Z,998.48
2019-05-17T10:34:49.610Z,998.51
2019-05-17T10:35:49.743Z,998.51
2019-05-17T10:36:50.639Z,998.45
2019-05-17T10:37:50.514Z,998.41
2019-05-17T10:38:50.222Z,998.48
2019-05-17T10:39:50.252Z,998.48
2019-05-17T10:40:50.112Z,998.44
2019-05-17T10:41:50.055Z,998.49
2019-05-17T10:42:49.989Z,998.45
2019-05-17T10:43:50.123Z,998.46
2019-05-17T10:44:51.433Z,998.46
2019-05-17T10:45:49.349Z,998.45
2019-05-17T10:46:49.362Z,998.49
2019-05-17T10:47:50.294Z,998.48
2019-05-17T10:48:50.059Z,998.49
2019-05-17T10:49:49.699Z,998.50
2019-05-17T10:50:49.712Z,998.49
2019-05-17T10:51:49.497Z,998.50
2019-05-17T10:52:49.239Z,998.52
2019-05-17T10:53:51.347Z,998.49
2019-05-17T10:54:49.204Z,998.53
2019-05-17T10:55:49.770Z,998.52
2019-05-17T10:56:50.231Z,998.52
2019-05-17T10:57:50.000Z,998.55
2019-05-17T10:58:49.394Z,998.53
2019-05-17T10:59:49.887Z,998.56
2019-05-17T11:00:50.113Z,998.51
2019-05-17T11:01:50.141Z,998.53
2019-05-17T11:02:50.275Z,998.55
2019-05-17T11:03:50.315Z,998.54
2019-05-17T11:04:50.550Z,998.55
2019-05-17T11:05:50.214Z,998.53
2019-05-17T11:06:50.056Z,998.58
2019-05-17T11:07:50.499Z,998.55
2019-05-17T11:08:50.145Z,998.53
2019-05-17T11:09:50.943Z,998.53
2019-05-17T11:10:50.099Z,998.55
2019-05-17T11:11:48.933Z,998.54
2019-05-17T11:12:48.930Z,998.55
2019-05-17T11:13:48.897Z,998.56
2019-05-17T11:14:52.604Z,998.51
2019-05-17T11:15:48.867Z,998.47
2019-05-17T11:16:48.854Z,998.51
2019-05-17T11:17:48.853Z,998.48
2019-05-17T11:18:48.818Z,998.49
2019-05-17T11:19:48.812Z,998.48
2019-05-17T11:20:48.786Z,998.53
2019-05-17T11:21:48.771Z,998.51
2019-05-17T11:22:48.757Z,998.50
2019-05-17T11:23:48.756Z,998.52
2019-05-17T11:24:48.724Z,998.50
2019-05-17T11:25:48.713Z,998.51
2019-05-17T11:26:48.691Z,998.50
2019-05-17T11:27:48.675Z,998.50
2019-05-17T11:28:48.679Z,998.54
2019-05-17T11:29:48.645Z,998.49
2019-05-17T11:30:48.628Z,998.51
2019-05-17T11:31:48.611Z,998.51
2019-05-17T11:32:48.595Z,998.50
2019-05-17T11:33:48.593Z,998.50
2019-05-17T11:34:48.565Z,998.51
2019-05-17T11:35:48.547Z,998.49
2019-05-17T11:36:48.531Z,998.48
2019-05-17T11:37:48.528Z,998.47
2019-05-17T11:38:48.539Z,998.49
2019-05-17T11:39:48.487Z,998.44
2019-05-17T11:40:50.002Z,998.44
2019-05-17T11:41:48.449Z,998.47
2019-05-17T11:42:48.435Z,998.48
2019-05-17T11:43:48.423Z,998.44
2019-05-17T11:44:48.416Z,998.47
2019-05-17T11:45:48.384Z,998.47
2019-05-17T11:46:48.374Z,998.44
2019-05-17T11:47:48.360Z,998.44
2019-05-17T11:48:48.339Z,998.48
2019-05-17T11:49:48.347Z,998.46
2019-05-17T11:50:48.307Z,998.48
2019-05-17T11:51:48.292Z,998.48
2019-05-17T11:52:48.278Z,998.53
2019-05-17T11:53:48.261Z,998.53
2019-05-17T11:54:48.259Z,998.48
2019-05-17T11:55:48.228Z,998.45
2019-05-17T11:56:48.212Z,998.48
2019-05-17T11:57:48.199Z,998.47
2019-05-17T11:58:48.182Z,998.48
2019-05-17T11:59:48.181Z,998.45
2019-05-17T12:00:48.149Z,998.42
2019-05-17T12:01:48.140Z,998.42
2019-05-17T12:02:48.121Z,998.39
2019-05-17T12:03:48.108Z,998.37
2019-05-17T12:04:48.106Z,998.40
2019-05-17T12:05:48.072Z,998.38
2019-05-17T12:06:48.062Z,998.38
2019-05-17T12:07:48.045Z,998.39
2019-05-17T12:08:48.025Z,998.37
2019-05-17T12:09:48.017Z,998.41
2019-05-17T12:10:48.119Z,998.40
2019-05-17T12:11:47.982Z,998.35
2019-05-17T12:12:47.964Z,998.34
2019-05-17T12:13:47.953Z,998.36
2019-05-17T12:14:47.942Z,998.33
2019-05-17T12:15:47.935Z,998.39
2019-05-17T12:16:47.903Z,998.38
2019-05-17T12:17:47.889Z,998.37
2019-05-17T12:18:47.877Z,998.42
2019-05-17T12:19:47.862Z,998.41
2019-05-17T12:20:47.868Z,998.39
2019-05-17T12:21:47.829Z,998.38
2019-05-17T12:22:47.822Z,998.36
2019-05-17T12:23:47.801Z,998.33
2019-05-17T12:24:47.787Z,998.29
2019-05-17T12:25:47.889Z,998.29
2019-05-17T12:26:47.771Z,998.30
2019-05-17T12:27:47.743Z,998.27
2019-05-17T12:28:47.733Z,998.33
2019-05-17T12:29:47.720Z,998.36
2019-05-17T12:30:47.702Z,998.39
2019-05-17T12:31:47.700Z,998.37
2019-05-17T12:32:47.675Z,998.32
2019-05-17T12:33:47.658Z,998.32
2019-05-17T12:34:47.649Z,998.34
2019-05-17T12:35:47.633Z,998.40
2019-05-17T12:36:47.654Z,998.37
2019-05-17T12:37:47.610Z,998.34
2019-05-17T12:38:47.593Z,998.37
2019-05-17T12:39:47.583Z,998.45
2019-05-17T12:40:47.565Z,998.31
2019-05-17T12:41:47.595Z,998.41
2019-05-17T12:42:47.551Z,998.37
2019-05-17T12:43:47.552Z,998.39
2019-05-17T12:44:47.515Z,998.47
2019-05-17T12:45:59.463Z,998.50
2019-05-17T12:46:47.487Z,998.31
2019-05-17T12:47:47.493Z,998.26
2019-05-17T12:48:47.466Z,998.31
2019-05-17T12:49:47.452Z,998.31
2019-05-17T12:50:47.442Z,998.26
2019-05-17T12:51:47.433Z,998.30
2019-05-17T12:52:47.432Z,998.35
2019-05-17T12:53:47.407Z,998.29
2019-05-17T12:54:47.398Z,998.26
2019-05-17T12:55:47.383Z,998.26
2019-05-17T12:56:47.371Z,998.31
2019-05-17T12:57:47.381Z,998.32
2019-05-17T12:58:47.346Z,998.25
2019-05-17T12:59:47.331Z,998.26
2019-05-17T13:00:47.319Z,998.23
2019-05-17T13:01:47.306Z,998.22
2019-05-17T13:02:47.310Z,998.35
2019-05-17T13:03:47.282Z,998.17
2019-05-17T13:04:47.269Z,998.22
2019-05-17T13:05:47.259Z,998.16
2019-05-17T13:06:47.244Z,998.18
2019-05-17T13:07:47.256Z,998.17
2019-05-17T13:08:47.218Z,998.17
2019-05-17T13:09:47.218Z,998.17
2019-05-17T13:10:47.193Z,998.19
2019-05-17T13:11:47.184Z,998.16
2019-05-17T13:12:47.181Z,998.16
2019-05-17T13:13:47.159Z,998.36
2019-05-17T13:14:47.149Z,998.25
2019-05-17T13:15:47.131Z,998.23
2019-05-17T13:16:47.118Z,998.39
2019-05-17T13:17:47.122Z,998.28
2019-05-17T13:18:47.095Z,998.22
2019-05-17T13:19:47.080Z,998.15
2019-05-17T13:20:47.071Z,998.12
2019-05-17T13:21:47.061Z,998.14
2019-05-17T13:22:47.071Z,998.09
2019-05-17T13:23:47.033Z,998.14
2019-05-17T13:24:47.027Z,998.10
2019-05-17T13:25:47.014Z,998.09
2019-05-17T13:26:47.003Z,998.10
2019-05-17T13:27:46.994Z,998.13
2019-05-17T13:28:46.989Z,998.16
2019-05-17T13:29:46.973Z,998.12
2019-05-17T13:30:46.956Z,998.13
2019-05-17T13:31:46.946Z,998.12
2019-05-17T13:32:46.932Z,998.14
2019-05-17T13:33:46.931Z,998.14
2019-05-17T13:34:46.906Z,998.12
2019-05-17T13:35:46.901Z,998.16
2019-05-17T13:36:46.883Z,998.10
2019-05-17T13:37:46.869Z,998.10
2019-05-17T13:38:46.874Z,998.04
2019-05-17T13:39:46.850Z,998.07
2019-05-17T13:40:46.837Z,998.12
2019-05-17T13:41:46.822Z,998.02
2019-05-17T13:42:46.819Z,998.01
2019-05-17T13:43:46.821Z,998.09
2019-05-17T13:44:46.786Z,998.10
2019-05-17T13:45:46.783Z,998.19
2019-05-17T13:46:46.762Z,998.12
2019-05-17T13:47:46.751Z,998.12
2019-05-17T13:48:46.738Z,997.99
2019-05-17T13:49:46.745Z,998.10
2019-05-17T13:50:46.715Z,998.02
2019-05-17T13:51:46.703Z,998.03
2019-05-17T13:52:46.691Z,998.07
2019-05-17T13:53:46.682Z,998.12
2019-05-17T13:54:46.699Z,998.32
2019-05-17T13:55:46.661Z,998.30
2019-05-17T13:56:46.646Z,997.99
2019-05-17T13:57:46.636Z,998.04
2019-05-17T13:58:46.629Z,998.12
2019-05-17T13:59:46.629Z,998.00
2019-05-17T14:00:46.606Z,997.92
2019-05-17T14:01:46.593Z,997.90
2019-05-17T14:02:46.585Z,997.88
2019-05-17T14:03:46.578Z,997.86
2019-05-17T14:04:46.575Z,997.90
2019-05-17T14:05:46.552Z,997.89
2019-05-17T14:06:46.540Z,998.12
2019-05-17T14:07:46.531Z,998.04
2019-05-17T14:08:46.519Z,997.95
2019-05-17T14:09:46.534Z,997.85
2019-05-17T14:10:46.496Z,997.90
2019-05-17T14:11:46.484Z,997.90
2019-05-17T14:12:46.473Z,997.92
2019-05-17T14:13:46.465Z,997.93
2019-05-17T14:14:46.472Z,997.81
2019-05-17T14:15:46.442Z,997.82
2019-05-17T14:16:46.430Z,997.84
2019-05-17T14:17:46.425Z,997.85
2019-05-17T14:18:46.408Z,997.83
2019-05-17T14:19:46.421Z,997.91
2019-05-17T14:20:46.437Z,997.85
2019-05-17T14:21:46.380Z,997.84
2019-05-17T14:22:46.406Z,997.91
2019-05-17T14:23:46.353Z,997.83
2019-05-17T14:24:46.346Z,997.82
2019-05-17T14:25:46.355Z,997.89
2019-05-17T14:26:46.320Z,997.85
2019-05-17T14:27:46.310Z,998.06
2019-05-17T14:28:46.297Z,997.84
2019-05-17T14:29:46.398Z,997.83
2019-05-17T14:30:46.290Z,997.80
2019-05-17T14:31:46.267Z,997.80
2019-05-17T14:32:46.306Z,997.75
2019-05-17T14:33:46.246Z,997.77
2019-05-17T14:34:46.234Z,997.72
2019-05-17T14:35:46.544Z,997.71
2019-05-17T14:36:46.221Z,997.73
2019-05-17T14:37:46.202Z,997.68
2019-05-17T14:38:58.517Z,997.71
2019-05-17T14:39:46.180Z,997.71
2019-05-17T14:41:05.671Z,997.67
2019-05-17T14:41:46.172Z,997.70
2019-05-17T14:42:46.144Z,997.68
2019-05-17T14:43:46.134Z,997.63
2019-05-17T14:44:46.126Z,997.62
2019-05-17T14:45:46.110Z,997.62
2019-05-17T14:46:46.117Z,997.59
2019-05-17T14:47:46.088Z,997.59
2019-05-17T14:48:46.082Z,997.57
2019-05-17T14:49:46.062Z,997.58
2019-05-17T14:50:46.057Z,997.60
2019-05-17T14:51:46.042Z,997.60
2019-05-17T14:52:46.040Z,997.61
2019-05-17T14:53:46.017Z,997.61
2019-05-17T14:54:46.004Z,997.61
2019-05-17T14:55:45.994Z,997.64
2019-05-17T14:56:45.976Z,997.66
2019-05-17T14:57:45.980Z,997.60
2019-05-17T14:58:45.953Z,997.67
2019-05-17T14:59:45.950Z,997.68
2019-05-17T15:00:45.926Z,997.71
2019-05-17T15:01:45.917Z,998.06
2019-05-17T15:02:45.917Z,997.88
2019-05-17T15:03:45.934Z,998.01
2019-05-17T15:04:45.883Z,997.90
2019-05-17T15:05:45.866Z,997.91
2019-05-17T15:06:45.856Z,998.11
2019-05-17T15:07:45.859Z,998.08
2019-05-17T15:08:46.447Z,997.95
2019-05-17T15:09:45.832Z,998.12
2019-05-17T15:10:45.823Z,997.99
2019-05-17T15:11:45.824Z,997.98
2019-05-17T15:12:45.803Z,997.92
2019-05-17T15:13:45.801Z,997.94
2019-05-17T15:14:45.813Z,997.95
2019-05-17T15:15:45.767Z,997.77
2019-05-17T15:16:45.800Z,997.60
2019-05-17T15:17:45.765Z,997.61
2019-05-17T15:18:45.745Z,997.74
2019-05-17T15:19:45.736Z,997.78
2019-05-17T15:20:45.728Z,997.91
2019-05-17T15:21:47.436Z,997.98
2019-05-17T15:22:47.422Z,997.55
2019-05-17T15:23:45.727Z,998.05
2019-05-17T15:24:45.692Z,998.11
2019-05-17T15:25:45.695Z,998.12
2019-05-17T15:27:03.507Z,998.18
2019-05-17T15:27:45.708Z,998.23
2019-05-17T15:28:45.664Z,998.06
2019-05-17T15:29:45.716Z,997.56
2019-05-17T15:30:45.650Z,998.33
2019-05-17T15:31:45.644Z,998.20
2019-05-17T15:32:45.661Z,998.44
2019-05-17T15:33:45.633Z,998.32
2019-05-17T15:34:45.628Z,998.32
2019-05-17T15:35:45.621Z,998.34
2019-05-17T15:36:45.641Z,998.07
2019-05-17T15:37:45.619Z,997.41
2019-05-17T15:38:45.598Z,998.17
2019-05-17T15:39:45.601Z,998.10
2019-05-17T15:40:45.586Z,998.12
2019-05-17T15:41:45.589Z,998.01
2019-05-17T15:42:45.594Z,997.97
2019-05-17T15:43:45.574Z,997.40
2019-05-17T15:44:45.566Z,997.31
2019-05-17T15:45:45.559Z,997.36
2019-05-17T15:46:45.561Z,997.28
2019-05-17T15:47:45.548Z,997.22
2019-05-17T15:48:45.559Z,997.24
2019-05-17T15:49:45.532Z,997.24
2019-05-17T15:50:45.694Z,997.18
2019-05-17T15:51:45.520Z,997.21
2019-05-17T15:52:45.518Z,997.15
2019-05-17T15:53:45.630Z,997.14
2019-05-17T15:54:48.488Z,997.14
2019-05-17T15:55:45.490Z,997.20
2019-05-17T15:56:45.529Z,997.18
2019-05-17T15:57:45.527Z,997.19
2019-05-17T15:58:45.643Z,997.46
2019-05-17T15:59:45.540Z,997.19
2019-05-17T16:00:45.447Z,997.18
2019-05-17T16:01:45.481Z,997.11
2019-05-17T16:02:45.424Z,997.09
2019-05-17T16:03:45.537Z,997.09
2019-05-17T16:04:45.419Z,997.10
2019-05-17T16:05:45.438Z,997.12
2019-05-17T16:06:45.384Z,997.10
2019-05-17T16:07:45.373Z,997.23
2019-05-17T16:08:45.369Z,997.44
2019-05-17T16:09:45.366Z,997.44
2019-05-17T16:10:45.340Z,997.10
2019-05-17T16:11:45.333Z,997.12
2019-05-17T16:13:01.083Z,997.43
2019-05-17T16:13:45.306Z,997.02
2019-05-17T16:14:45.333Z,997.04
2019-05-17T16:15:45.306Z,997.02
2019-05-17T16:16:45.293Z,997.14
2019-05-17T16:17:45.285Z,997.43
2019-05-17T16:18:45.262Z,997.45
2019-05-17T16:19:45.266Z,997.41
2019-05-17T16:20:45.232Z,997.48
2019-05-17T16:21:45.231Z,997.44
2019-05-17T16:22:45.214Z,997.40
2019-05-17T16:23:45.225Z,997.45
2019-05-17T16:24:45.220Z,997.38
2019-05-17T16:25:45.200Z,997.42
2019-05-17T16:26:45.176Z,997.34
2019-05-17T16:27:45.165Z,997.06
2019-05-17T16:28:45.159Z,997.09
2019-05-17T16:29:45.147Z,997.07
2019-05-17T16:30:45.167Z,997.01
2019-05-17T16:31:45.137Z,996.99
2019-05-17T16:32:45.138Z,997.05
2019-05-17T16:33:45.115Z,997.02
2019-05-17T16:34:45.106Z,997.00
2019-05-17T16:35:45.110Z,996.96
2019-05-17T16:36:45.086Z,997.00
2019-05-17T16:37:45.082Z,996.98
2019-05-17T16:38:45.062Z,997.01
2019-05-17T16:39:45.055Z,997.02
2019-05-17T16:40:45.067Z,997.02
2019-05-17T16:41:45.029Z,997.02
2019-05-17T16:42:45.021Z,997.02
2019-05-17T16:43:45.010Z,997.03
2019-05-17T16:44:45.006Z,997.03
2019-05-17T16:45:45.001Z,997.04
2019-05-17T16:46:44.975Z,997.04
2019-05-17T16:47:44.964Z,997.03
2019-05-17T16:48:44.969Z,997.04
2019-05-17T16:49:44.942Z,997.00
2019-05-17T16:50:44.947Z,996.99
2019-05-17T16:51:44.918Z,996.96
2019-05-17T16:52:44.904Z,996.97
2019-05-17T16:53:44.901Z,996.89
2019-05-17T16:54:44.878Z,996.87
2019-05-17T16:55:44.884Z,996.90
2019-05-17T16:56:44.857Z,997.25
2019-05-17T16:57:44.850Z,997.20
2019-05-17T16:58:44.829Z,997.23
2019-05-17T16:59:44.816Z,997.13
2019-05-17T17:00:44.829Z,996.93
2019-05-17T17:01:44.796Z,997.02
2019-05-17T17:02:44.786Z,996.99
2019-05-17T17:03:44.955Z,997.03
2019-05-17T17:04:44.758Z,996.96
2019-05-17T17:05:44.762Z,997.14
2019-05-17T17:06:44.739Z,997.02
2019-05-17T17:07:44.732Z,996.98
2019-05-17T17:08:44.719Z,996.90
2019-05-17T17:09:44.705Z,996.87
2019-05-17T17:10:44.709Z,996.86
2019-05-17T17:11:45.774Z,996.81
2019-05-17T17:12:44.671Z,996.79
2019-05-17T17:13:44.670Z,996.79
2019-05-17T17:14:44.648Z,996.77
2019-05-17T17:15:44.674Z,996.79
2019-05-17T17:16:44.645Z,996.80
2019-05-17T17:17:44.612Z,996.77
2019-05-17T17:18:44.611Z,996.78
2019-05-17T17:19:44.587Z,996.78
2019-05-17T17:20:44.573Z,996.78
2019-05-17T17:21:44.575Z,996.78
2019-05-17T17:22:44.554Z,996.75
2019-05-17T17:23:44.536Z,996.74
2019-05-17T17:24:44.522Z,996.79
2019-05-17T17:25:44.516Z,996.80
2019-05-17T17:26:44.511Z,996.80
2019-05-17T17:27:44.483Z,996.81
2019-05-17T17:28:44.471Z,996.80
2019-05-17T17:29:44.456Z,996.81
2019-05-17T17:30:44.447Z,996.75
2019-05-17T17:31:44.451Z,996.76
2019-05-17T17:32:44.422Z,996.76
2019-05-17T17:33:44.402Z,996.75
2019-05-17T17:34:44.391Z,996.73
2019-05-17T17:35:44.394Z,996.71
2019-05-17T17:36:44.360Z,996.74
2019-05-17T17:37:44.366Z,996.75
2019-05-17T17:38:44.335Z,996.75
2019-05-17T17:39:44.327Z,996.77
2019-05-17T17:40:44.311Z,996.72
2019-05-17T17:41:44.292Z,996.77
2019-05-17T17:42:44.293Z,996.78
2019-05-17T17:43:57.540Z,996.75
2019-05-17T17:44:44.250Z,996.75
2019-05-17T17:45:44.240Z,996.74
2019-05-17T17:46:44.224Z,996.72
2019-05-17T17:47:44.232Z,996.71
2019-05-17T17:48:45.928Z,996.70
2019-05-17T17:49:44.185Z,996.69
2019-05-17T17:50:44.209Z,996.70
2019-05-17T17:51:44.180Z,996.71
2019-05-17T17:52:44.141Z,996.74
2019-05-17T17:53:44.139Z,996.75
2019-05-17T17:54:44.109Z,996.78
2019-05-17T17:55:44.094Z,996.76
2019-05-17T17:56:44.078Z,996.77
2019-05-17T17:57:44.064Z,996.74
2019-05-17T17:58:44.075Z,996.75
2019-05-17T17:59:44.043Z,996.79
2019-05-17T18:00:44.023Z,996.78
2019-05-17T18:01:44.005Z,996.76
2019-05-17T18:02:43.989Z,996.74
2019-05-17T18:03:43.991Z,996.77
2019-05-17T18:04:43.965Z,996.75
2019-05-17T18:05:43.948Z,996.74
2019-05-17T18:06:43.926Z,996.72
2019-05-17T18:07:43.922Z,996.75
2019-05-17T18:08:43.945Z,996.76
2019-05-17T18:09:43.891Z,996.71
2019-05-17T18:10:46.548Z,996.69
2019-05-17T18:11:43.858Z,996.73
2019-05-17T18:12:43.865Z,996.72
2019-05-17T18:13:43.857Z,996.72
2019-05-17T18:14:43.807Z,996.70
2019-05-17T18:15:43.792Z,996.68
2019-05-17T18:16:43.794Z,996.74
2019-05-17T18:17:43.760Z,996.74
2019-05-17T18:18:43.760Z,996.73
2019-05-17T18:19:43.730Z,996.73
2019-05-17T18:20:43.720Z,996.73
2019-05-17T18:21:43.699Z,996.68
2019-05-17T18:22:43.771Z,996.73
2019-05-17T18:23:43.686Z,996.73
2019-05-17T18:24:43.676Z,996.73
2019-05-17T18:25:43.654Z,996.74
2019-05-17T18:26:43.641Z,996.76
2019-05-17T18:27:43.603Z,996.73
2019-05-17T18:28:43.615Z,996.80
2019-05-17T18:29:43.599Z,996.81
2019-05-17T18:30:43.560Z,996.81
2019-05-17T18:31:43.543Z,996.84
2019-05-17T18:32:43.530Z,996.83
2019-05-17T18:33:43.532Z,996.81
2019-05-17T18:34:43.510Z,996.84
2019-05-17T18:35:43.509Z,996.83
2019-05-17T18:36:43.485Z,996.87
2019-05-17T18:37:43.464Z,996.83
2019-05-17T18:38:43.471Z,996.85
2019-05-17T18:39:43.420Z,996.87
2019-05-17T18:40:43.402Z,996.84
2019-05-17T18:41:43.394Z,996.84
2019-05-17T18:42:43.381Z,996.85
2019-05-17T18:43:43.385Z,996.83
2019-05-17T18:44:43.365Z,996.81
2019-05-17T18:45:43.357Z,996.83
2019-05-17T18:46:43.343Z,996.78
2019-05-17T18:47:43.324Z,996.81
2019-05-17T18:48:43.339Z,996.84
2019-05-17T18:49:43.277Z,996.83
2019-05-17T18:50:43.266Z,996.81
2019-05-17T18:51:43.238Z,996.79
2019-05-17T18:52:43.256Z,996.81
2019-05-17T18:53:43.214Z,996.78
2019-05-17T18:54:43.181Z,996.77
2019-05-17T18:55:43.169Z,996.77
2019-05-17T18:56:43.155Z,996.80
2019-05-17T18:57:43.141Z,996.78
2019-05-17T18:58:43.118Z,996.78
2019-05-17T18:59:43.122Z,996.77
2019-05-17T19:00:43.084Z,996.76
2019-05-17T19:01:43.072Z,996.77
2019-05-17T19:02:43.050Z,996.80
2019-05-17T19:03:43.040Z,996.80
2019-05-17T19:04:43.056Z,996.80
2019-05-17T19:05:45.278Z,996.79
2019-05-17T19:06:42.992Z,996.78
2019-05-17T19:07:42.971Z,996.77
2019-05-17T19:08:42.956Z,996.76
2019-05-17T19:09:42.954Z,996.78
2019-05-17T19:10:42.928Z,996.75
2019-05-17T19:11:42.929Z,996.77
2019-05-17T19:12:42.886Z,996.82
2019-05-17T19:13:42.870Z,996.82
2019-05-17T19:14:43.469Z,996.80
2019-05-17T19:15:42.851Z,996.84
2019-05-17T19:16:42.823Z,996.82
2019-05-17T19:17:42.803Z,996.86
2019-05-17T19:18:42.790Z,996.86
2019-05-17T19:19:42.779Z,996.85
2019-05-17T19:20:42.779Z,996.87
2019-05-17T19:21:42.751Z,996.88
2019-05-17T19:22:42.724Z,996.87
2019-05-17T19:23:42.707Z,996.93
2019-05-17T19:24:42.695Z,996.93
2019-05-17T19:25:42.701Z,996.88
2019-05-17T19:26:42.656Z,996.90
2019-05-17T19:27:42.641Z,996.93
2019-05-17T19:28:42.624Z,996.95
2019-05-17T19:29:43.357Z,996.98
2019-05-17T19:30:42.626Z,996.94
2019-05-17T19:31:42.575Z,996.96
2019-05-17T19:32:42.558Z,996.94
2019-05-17T19:33:42.543Z,997.00
2019-05-17T19:34:42.535Z,996.97
2019-05-17T19:35:42.508Z,996.98
2019-05-17T19:36:42.508Z,997.00
2019-05-17T19:37:42.475Z,997.03
2019-05-17T19:38:42.463Z,997.02
2019-05-17T19:39:42.448Z,997.02
2019-05-17T19:40:42.439Z,997.05
2019-05-17T19:41:42.433Z,997.07
2019-05-17T19:42:42.407Z,997.09
2019-05-17T19:43:42.398Z,997.07
2019-05-17T19:44:56.582Z,997.09
2019-05-17T19:45:42.348Z,997.10
2019-05-17T19:46:42.344Z,997.08
2019-05-17T19:47:42.308Z,997.14
2019-05-17T19:48:42.302Z,997.15
2019-05-17T19:49:42.284Z,997.11
2019-05-17T19:50:42.265Z,997.14
2019-05-17T19:51:42.261Z,997.13
2019-05-17T19:52:42.237Z,997.11
2019-05-17T19:53:42.213Z,997.12
2019-05-17T19:54:42.198Z,997.08
2019-05-17T19:55:42.186Z,997.10
2019-05-17T19:56:42.193Z,997.11
2019-05-17T19:57:42.144Z,997.05
2019-05-17T19:58:42.145Z,997.08
2019-05-17T19:59:42.108Z,997.10
2019-05-17T20:00:42.085Z,997.08
2019-05-17T20:01:42.098Z,997.13
2019-05-17T20:02:42.050Z,997.14
2019-05-17T20:03:42.054Z,997.13
2019-05-17T20:04:42.028Z,997.18
2019-05-17T20:05:42.000Z,997.16
2019-05-17T20:06:41.985Z,997.13
2019-05-17T20:07:41.993Z,997.17
2019-05-17T20:08:41.949Z,997.14
2019-05-17T20:09:41.948Z,997.18